Boston, Massachusetts
Traffic Map
Current Weather Conditions
Boston, Massachusetts
Clear
Clear
81°
Feels Like: 83°
Wind Chill: 81° Ceiling: Unl
Heat Index: 83° Visibility: 10mi
Dew Point: 67° Wind: 13mph
Humidity: 62% Direction: 240° (WSW)
Pressure: 29.89in Gusts: 0mph
Raw Report DataKBOS 300354Z 24011KT 10SM CLR 27/19 A2989 RMK AO2 SLP121 T02720194
Traffic Incident Summary
Active as of:
Severity:
Category:
InformationThere was an issue retrieving the traffic information for this location. Please try a different location or try again shortly.
Advertisements
Track Severe Weather on mobile